sensor_id;sensor_type;location;lat;lon;timestamp;P1;durP1;ratioP1;P2;durP2;ratioP2
60867;SDS011;46702;48.370;10.794;2023-12-20T00:01:18;3.33;;;1.67;;
60867;SDS011;46702;48.370;10.794;2023-12-20T00:03:44;2.72;;;2.15;;
60867;SDS011;46702;48.370;10.794;2023-12-20T00:06:10;2.45;;;2.15;;
60867;SDS011;46702;48.370;10.794;2023-12-20T00:08:35;2.42;;;2.22;;
60867;SDS011;46702;48.370;10.794;2023-12-20T00:11:01;2.85;;;2.60;;
60867;SDS011;46702;48.370;10.794;2023-12-20T00:13:27;2.72;;;2.25;;
60867;SDS011;46702;48.370;10.794;2023-12-20T00:15:52;3.25;;;2.25;;
60867;SDS011;46702;48.370;10.794;2023-12-20T00:18:18;2.45;;;2.17;;
60867;SDS011;46702;48.370;10.794;2023-12-20T00:20:44;3.13;;;2.30;;
60867;SDS011;46702;48.370;10.794;2023-12-20T00:23:09;2.75;;;2.05;;
60867;SDS011;46702;48.370;10.794;2023-12-20T00:25:35;2.92;;;2.10;;
60867;SDS011;46702;48.370;10.794;2023-12-20T00:28:01;3.35;;;3.05;;
60867;SDS011;46702;48.370;10.794;2023-12-20T00:30:27;2.33;;;2.13;;
60867;SDS011;46702;48.370;10.794;2023-12-20T00:32:53;2.67;;;2.10;;
60867;SDS011;46702;48.370;10.794;2023-12-20T00:35:18;3.30;;;2.40;;
60867;SDS011;46702;48.370;10.794;2023-12-20T00:37:44;3.42;;;2.30;;
60867;SDS011;46702;48.370;10.794;2023-12-20T00:40:10;2.70;;;2.28;;
60867;SDS011;46702;48.370;10.794;2023-12-20T00:42:36;2.80;;;2.50;;
60867;SDS011;46702;48.370;10.794;2023-12-20T00:45:02;3.28;;;2.75;;
60867;SDS011;46702;48.370;10.794;2023-12-20T00:47:29;3.90;;;2.70;;
60867;SDS011;46702;48.370;10.794;2023-12-20T00:49:56;5.93;;;3.60;;
60867;SDS011;46702;48.370;10.794;2023-12-20T00:52:22;5.18;;;3.38;;
60867;SDS011;46702;48.370;10.794;2023-12-20T00:54:48;2.30;;;2.10;;
60867;SDS011;46702;48.370;10.794;2023-12-20T00:57:14;2.22;;;1.77;;
60867;SDS011;46702;48.370;10.794;2023-12-20T00:59:40;2.35;;;1.75;;
60867;SDS011;46702;48.370;10.794;2023-12-20T01:02:05;2.15;;;2.00;;
60867;SDS011;46702;48.370;10.794;2023-12-20T01:04:31;2.33;;;1.90;;
60867;SDS011;46702;48.370;10.794;2023-12-20T01:06:56;2.03;;;1.83;;
60867;SDS011;46702;48.370;10.794;2023-12-20T01:09:22;3.22;;;1.95;;
60867;SDS011;46702;48.370;10.794;2023-12-20T01:11:53;2.03;;;1.65;;
60867;SDS011;46702;48.370;10.794;2023-12-20T01:14:19;2.15;;;1.90;;
60867;SDS011;46702;48.370;10.794;2023-12-20T01:16:45;2.08;;;1.88;;
60867;SDS011;46702;48.370;10.794;2023-12-20T01:19:11;2.00;;;1.52;;
60867;SDS011;46702;48.370;10.794;2023-12-20T01:21:36;2.13;;;1.80;;
60867;SDS011;46702;48.370;10.794;2023-12-20T01:24:02;1.85;;;1.75;;
60867;SDS011;46702;48.370;10.794;2023-12-20T01:26:27;2.20;;;1.75;;
60867;SDS011;46702;48.370;10.794;2023-12-20T01:28:53;1.80;;;1.70;;
60867;SDS011;46702;48.370;10.794;2023-12-20T01:31:19;1.67;;;1.50;;
60867;SDS011;46702;48.370;10.794;2023-12-20T01:33:44;1.73;;;1.63;;
60867;SDS011;46702;48.370;10.794;2023-12-20T01:36:10;2.40;;;1.92;;
60867;SDS011;46702;48.370;10.794;2023-12-20T01:38:36;1.60;;;1.50;;
60867;SDS011;46702;48.370;10.794;2023-12-20T01:41:02;3.47;;;1.55;;
60867;SDS011;46702;48.370;10.794;2023-12-20T01:43:27;1.67;;;1.58;;
60867;SDS011;46702;48.370;10.794;2023-12-20T01:45:54;2.17;;;1.73;;
60867;SDS011;46702;48.370;10.794;2023-12-20T01:48:22;2.07;;;1.83;;
60867;SDS011;46702;48.370;10.794;2023-12-20T01:50:48;2.08;;;1.70;;
60867;SDS011;46702;48.370;10.794;2023-12-20T01:53:14;1.70;;;1.60;;
60867;SDS011;46702;48.370;10.794;2023-12-20T01:55:40;1.95;;;1.80;;
60867;SDS011;46702;48.370;10.794;2023-12-20T01:58:07;1.60;;;1.50;;
60867;SDS011;46702;48.370;10.794;2023-12-20T02:00:36;2.42;;;2.28;;
60867;SDS011;46702;48.370;10.794;2023-12-20T02:03:05;1.73;;;1.63;;
60867;SDS011;46702;48.370;10.794;2023-12-20T02:05:31;1.90;;;1.80;;
60867;SDS011;46702;48.370;10.794;2023-12-20T02:07:57;1.42;;;1.33;;
60867;SDS011;46702;48.370;10.794;2023-12-20T02:10:23;1.70;;;1.60;;
60867;SDS011;46702;48.370;10.794;2023-12-20T02:12:49;1.73;;;1.63;;
60867;SDS011;46702;48.370;10.794;2023-12-20T02:15:15;1.83;;;1.73;;
60867;SDS011;46702;48.370;10.794;2023-12-20T02:17:40;2.05;;;1.90;;
60867;SDS011;46702;48.370;10.794;2023-12-20T02:20:06;1.55;;;1.42;;
60867;SDS011;46702;48.370;10.794;2023-12-20T02:22:32;2.35;;;1.85;;
60867;SDS011;46702;48.370;10.794;2023-12-20T02:24:58;1.50;;;1.40;;
60867;SDS011;46702;48.370;10.794;2023-12-20T02:27:23;3.03;;;1.60;;
60867;SDS011;46702;48.370;10.794;2023-12-20T02:29:49;1.60;;;1.50;;
60867;SDS011;46702;48.370;10.794;2023-12-20T02:32:18;1.73;;;1.63;;
60867;SDS011;46702;48.370;10.794;2023-12-20T02:34:46;1.50;;;1.40;;
60867;SDS011;46702;48.370;10.794;2023-12-20T02:37:12;2.30;;;2.10;;
60867;SDS011;46702;48.370;10.794;2023-12-20T02:39:38;2.03;;;1.92;;
60867;SDS011;46702;48.370;10.794;2023-12-20T02:42:03;1.67;;;1.58;;
60867;SDS011;46702;48.370;10.794;2023-12-20T02:44:29;1.80;;;1.55;;
60867;SDS011;46702;48.370;10.794;2023-12-20T02:46:55;3.38;;;1.95;;
60867;SDS011;46702;48.370;10.794;2023-12-20T02:49:20;1.63;;;1.52;;
60867;SDS011;46702;48.370;10.794;2023-12-20T02:51:46;2.47;;;2.28;;
60867;SDS011;46702;48.370;10.794;2023-12-20T02:54:12;1.73;;;1.63;;
60867;SDS011;46702;48.370;10.794;2023-12-20T02:56:37;2.05;;;1.60;;
60867;SDS011;46702;48.370;10.794;2023-12-20T02:59:03;2.00;;;1.90;;
60867;SDS011;46702;48.370;10.794;2023-12-20T03:01:30;1.90;;;1.80;;
60867;SDS011;46702;48.370;10.794;2023-12-20T03:03:56;2.20;;;1.73;;
60867;SDS011;46702;48.370;10.794;2023-12-20T03:06:22;1.67;;;1.52;;
60867;SDS011;46702;48.370;10.794;2023-12-20T03:08:47;1.60;;;1.50;;
60867;SDS011;46702;48.370;10.794;2023-12-20T03:11:13;1.55;;;1.45;;
60867;SDS011;46702;48.370;10.794;2023-12-20T03:13:38;3.15;;;1.98;;
60867;SDS011;46702;48.370;10.794;2023-12-20T03:16:08;1.85;;;1.55;;
60867;SDS011;46702;48.370;10.794;2023-12-20T03:18:37;3.70;;;2.30;;
60867;SDS011;46702;48.370;10.794;2023-12-20T03:21:03;2.90;;;2.65;;
60867;SDS011;46702;48.370;10.794;2023-12-20T03:23:29;1.55;;;1.45;;
60867;SDS011;46702;48.370;10.794;2023-12-20T03:25:57;1.80;;;1.70;;
60867;SDS011;46702;48.370;10.794;2023-12-20T03:28:23;3.85;;;1.70;;
60867;SDS011;46702;48.370;10.794;2023-12-20T03:30:49;1.73;;;1.60;;
60867;SDS011;46702;48.370;10.794;2023-12-20T03:33:14;4.38;;;1.83;;
60867;SDS011;46702;48.370;10.794;2023-12-20T03:35:40;2.20;;;2.00;;
60867;SDS011;46702;48.370;10.794;2023-12-20T03:38:06;3.05;;;1.85;;
60867;SDS011;46702;48.370;10.794;2023-12-20T03:40:32;2.05;;;1.95;;
60867;SDS011;46702;48.370;10.794;2023-12-20T03:42:58;2.88;;;2.00;;
60867;SDS011;46702;48.370;10.794;2023-12-20T03:45:23;1.95;;;1.85;;
60867;SDS011;46702;48.370;10.794;2023-12-20T03:47:49;1.92;;;1.65;;
60867;SDS011;46702;48.370;10.794;2023-12-20T03:50:20;2.92;;;2.63;;
60867;SDS011;46702;48.370;10.794;2023-12-20T03:52:47;1.77;;;1.67;;
60867;SDS011;46702;48.370;10.794;2023-12-20T03:55:12;2.22;;;2.03;;
60867;SDS011;46702;48.370;10.794;2023-12-20T03:57:38;2.53;;;1.83;;
60867;SDS011;46702;48.370;10.794;2023-12-20T04:00:04;1.92;;;1.80;;
60867;SDS011;46702;48.370;10.794;2023-12-20T04:02:34;2.17;;;1.92;;
60867;SDS011;46702;48.370;10.794;2023-12-20T04:04:59;2.40;;;2.20;;
60867;SDS011;46702;48.370;10.794;2023-12-20T04:07:25;5.55;;;2.45;;
60867;SDS011;46702;48.370;10.794;2023-12-20T04:09:50;2.13;;;1.92;;
60867;SDS011;46702;48.370;10.794;2023-12-20T04:12:16;2.17;;;1.98;;
60867;SDS011;46702;48.370;10.794;2023-12-20T04:14:42;3.22;;;2.28;;
60867;SDS011;46702;48.370;10.794;2023-12-20T04:17:07;2.03;;;1.90;;
60867;SDS011;46702;48.370;10.794;2023-12-20T04:19:33;2.42;;;2.20;;
60867;SDS011;46702;48.370;10.794;2023-12-20T04:21:59;1.73;;;1.35;;
60867;SDS011;46702;48.370;10.794;2023-12-20T04:24:24;3.97;;;2.10;;
60867;SDS011;46702;48.370;10.794;2023-12-20T04:26:50;2.17;;;1.98;;
60867;SDS011;46702;48.370;10.794;2023-12-20T04:29:15;2.13;;;1.92;;
60867;SDS011;46702;48.370;10.794;2023-12-20T04:31:41;2.88;;;1.98;;
60867;SDS011;46702;48.370;10.794;2023-12-20T04:34:06;2.42;;;2.22;;
60867;SDS011;46702;48.370;10.794;2023-12-20T04:36:32;2.30;;;1.98;;
60867;SDS011;46702;48.370;10.794;2023-12-20T04:38:58;1.95;;;1.85;;
60867;SDS011;46702;48.370;10.794;2023-12-20T04:41:24;2.40;;;2.20;;
60867;SDS011;46702;48.370;10.794;2023-12-20T04:43:50;2.42;;;2.22;;
60867;SDS011;46702;48.370;10.794;2023-12-20T04:46:16;3.38;;;2.50;;
60867;SDS011;46702;48.370;10.794;2023-12-20T04:48:41;2.50;;;2.30;;
60867;SDS011;46702;48.370;10.794;2023-12-20T04:51:07;2.95;;;2.38;;
60867;SDS011;46702;48.370;10.794;2023-12-20T04:53:33;2.33;;;2.13;;
60867;SDS011;46702;48.370;10.794;2023-12-20T04:55:58;2.33;;;2.13;;
60867;SDS011;46702;48.370;10.794;2023-12-20T04:58:24;2.20;;;1.95;;
60867;SDS011;46702;48.370;10.794;2023-12-20T05:00:50;2.78;;;2.45;;
60867;SDS011;46702;48.370;10.794;2023-12-20T05:03:16;3.03;;;2.42;;
60867;SDS011;46702;48.370;10.794;2023-12-20T05:05:41;3.05;;;2.38;;
60867;SDS011;46702;48.370;10.794;2023-12-20T05:08:07;1.88;;;1.70;;
60867;SDS011;46702;48.370;10.794;2023-12-20T05:10:32;2.53;;;2.33;;
60867;SDS011;46702;48.370;10.794;2023-12-20T05:12:58;2.95;;;2.13;;
60867;SDS011;46702;48.370;10.794;2023-12-20T05:15:24;2.20;;;2.00;;
60867;SDS011;46702;48.370;10.794;2023-12-20T05:17:49;2.90;;;2.30;;
60867;SDS011;46702;48.370;10.794;2023-12-20T05:20:15;2.33;;;2.13;;
60867;SDS011;46702;48.370;10.794;2023-12-20T05:22:41;5.00;;;2.83;;
60867;SDS011;46702;48.370;10.794;2023-12-20T05:25:06;1.85;;;1.48;;
60867;SDS011;46702;48.370;10.794;2023-12-20T05:27:32;2.28;;;2.08;;
60867;SDS011;46702;48.370;10.794;2023-12-20T05:29:58;2.75;;;2.38;;
60867;SDS011;46702;48.370;10.794;2023-12-20T05:32:23;2.40;;;2.20;;
60867;SDS011;46702;48.370;10.794;2023-12-20T05:34:50;2.13;;;1.80;;
60867;SDS011;46702;48.370;10.794;2023-12-20T05:37:15;1.88;;;1.77;;
60867;SDS011;46702;48.370;10.794;2023-12-20T05:39:41;2.40;;;2.00;;
60867;SDS011;46702;48.370;10.794;2023-12-20T05:42:06;2.75;;;2.40;;
60867;SDS011;46702;48.370;10.794;2023-12-20T05:44:32;2.50;;;1.83;;
60867;SDS011;46702;48.370;10.794;2023-12-20T05:46:58;2.95;;;2.17;;
60867;SDS011;46702;48.370;10.794;2023-12-20T05:49:23;2.00;;;1.90;;
60867;SDS011;46702;48.370;10.794;2023-12-20T05:51:49;2.13;;;1.90;;
60867;SDS011;46702;48.370;10.794;2023-12-20T05:54:16;2.17;;;1.98;;
60867;SDS011;46702;48.370;10.794;2023-12-20T05:56:41;1.80;;;1.70;;
60867;SDS011;46702;48.370;10.794;2023-12-20T05:59:07;2.42;;;1.60;;
60867;SDS011;46702;48.370;10.794;2023-12-20T06:01:33;1.70;;;1.60;;
60867;SDS011;46702;48.370;10.794;2023-12-20T06:03:58;2.00;;;1.90;;
60867;SDS011;46702;48.370;10.794;2023-12-20T06:06:24;5.00;;;2.15;;
60867;SDS011;46702;48.370;10.794;2023-12-20T06:08:50;2.97;;;2.40;;
60867;SDS011;46702;48.370;10.794;2023-12-20T06:11:15;3.03;;;1.90;;
60867;SDS011;46702;48.370;10.794;2023-12-20T06:13:41;4.13;;;3.03;;
60867;SDS011;46702;48.370;10.794;2023-12-20T06:16:06;1.98;;;1.77;;
60867;SDS011;46702;48.370;10.794;2023-12-20T06:18:32;5.70;;;4.75;;
60867;SDS011;46702;48.370;10.794;2023-12-20T06:20:58;5.00;;;4.05;;
60867;SDS011;46702;48.370;10.794;2023-12-20T06:23:23;30.80;;;19.98;;
60867;SDS011;46702;48.370;10.794;2023-12-20T06:25:49;21.52;;;14.88;;
60867;SDS011;46702;48.370;10.794;2023-12-20T06:28:15;32.17;;;19.27;;
60867;SDS011;46702;48.370;10.794;2023-12-20T06:30:40;17.42;;;12.35;;
60867;SDS011;46702;48.370;10.794;2023-12-20T06:33:06;6.85;;;6.07;;
60867;SDS011;46702;48.370;10.794;2023-12-20T06:35:32;9.65;;;8.48;;
60867;SDS011;46702;48.370;10.794;2023-12-20T06:37:57;3.28;;;2.97;;
60867;SDS011;46702;48.370;10.794;2023-12-20T06:40:23;3.03;;;2.72;;
60867;SDS011;46702;48.370;10.794;2023-12-20T06:42:49;4.25;;;3.25;;
60867;SDS011;46702;48.370;10.794;2023-12-20T06:45:14;3.25;;;2.95;;
60867;SDS011;46702;48.370;10.794;2023-12-20T06:47:40;3.88;;;3.45;;
60867;SDS011;46702;48.370;10.794;2023-12-20T06:50:06;4.93;;;4.32;;
60867;SDS011;46702;48.370;10.794;2023-12-20T06:52:33;5.90;;;4.22;;
60867;SDS011;46702;48.370;10.794;2023-12-20T06:54:59;5.75;;;4.43;;
60867;SDS011;46702;48.370;10.794;2023-12-20T06:57:25;6.50;;;5.28;;
60867;SDS011;46702;48.370;10.794;2023-12-20T06:59:51;6.10;;;5.45;;
60867;SDS011;46702;48.370;10.794;2023-12-20T07:02:18;5.15;;;4.00;;
60867;SDS011;46702;48.370;10.794;2023-12-20T07:04:43;4.03;;;3.63;;
60867;SDS011;46702;48.370;10.794;2023-12-20T07:07:09;7.20;;;4.60;;
60867;SDS011;46702;48.370;10.794;2023-12-20T07:09:35;2.83;;;2.63;;
60867;SDS011;46702;48.370;10.794;2023-12-20T07:12:00;3.78;;;2.55;;
60867;SDS011;46702;48.370;10.794;2023-12-20T07:14:27;9.50;;;6.30;;
60867;SDS011;46702;48.370;10.794;2023-12-20T07:16:53;5.05;;;3.28;;
60867;SDS011;46702;48.370;10.794;2023-12-20T07:19:18;5.43;;;4.40;;
60867;SDS011;46702;48.370;10.794;2023-12-20T07:21:44;5.07;;;4.57;;
60867;SDS011;46702;48.370;10.794;2023-12-20T07:24:10;7.05;;;3.80;;
60867;SDS011;46702;48.370;10.794;2023-12-20T07:26:35;4.18;;;3.58;;
60867;SDS011;46702;48.370;10.794;2023-12-20T07:29:03;4.55;;;4.15;;
60867;SDS011;46702;48.370;10.794;2023-12-20T07:31:29;3.22;;;2.92;;
60867;SDS011;46702;48.370;10.794;2023-12-20T07:33:54;3.80;;;3.40;;
60867;SDS011;46702;48.370;10.794;2023-12-20T07:36:20;4.45;;;2.80;;
60867;SDS011;46702;48.370;10.794;2023-12-20T07:38:46;3.28;;;2.97;;
60867;SDS011;46702;48.370;10.794;2023-12-20T07:41:12;3.03;;;2.25;;
60867;SDS011;46702;48.370;10.794;2023-12-20T07:43:38;2.75;;;2.53;;
60867;SDS011;46702;48.370;10.794;2023-12-20T07:46:04;4.53;;;3.22;;
60867;SDS011;46702;48.370;10.794;2023-12-20T07:48:34;8.13;;;4.72;;
60867;SDS011;46702;48.370;10.794;2023-12-20T07:51:00;4.00;;;3.05;;
60867;SDS011;46702;48.370;10.794;2023-12-20T07:53:26;3.72;;;3.40;;
60867;SDS011;46702;48.370;10.794;2023-12-20T07:55:52;3.90;;;3.53;;
60867;SDS011;46702;48.370;10.794;2023-12-20T07:58:18;4.75;;;3.60;;
60867;SDS011;46702;48.370;10.794;2023-12-20T08:00:44;4.65;;;3.55;;
60867;SDS011;46702;48.370;10.794;2023-12-20T08:03:09;4.05;;;3.55;;
60867;SDS011;46702;48.370;10.794;2023-12-20T08:05:35;3.45;;;3.13;;
60867;SDS011;46702;48.370;10.794;2023-12-20T08:08:01;3.20;;;2.92;;
60867;SDS011;46702;48.370;10.794;2023-12-20T08:10:26;3.67;;;3.28;;
60867;SDS011;46702;48.370;10.794;2023-12-20T08:12:55;4.03;;;3.63;;
60867;SDS011;46702;48.370;10.794;2023-12-20T08:15:20;3.97;;;3.28;;
60867;SDS011;46702;48.370;10.794;2023-12-20T08:17:46;4.45;;;3.08;;
60867;SDS011;46702;48.370;10.794;2023-12-20T08:20:11;4.75;;;3.40;;
60867;SDS011;46702;48.370;10.794;2023-12-20T08:22:37;3.20;;;2.90;;
60867;SDS011;46702;48.370;10.794;2023-12-20T08:25:03;3.10;;;2.80;;
60867;SDS011;46702;48.370;10.794;2023-12-20T08:27:29;2.53;;;2.17;;
60867;SDS011;46702;48.370;10.794;2023-12-20T08:29:56;6.38;;;2.72;;
60867;SDS011;46702;48.370;10.794;2023-12-20T08:32:24;2.90;;;2.28;;
60867;SDS011;46702;48.370;10.794;2023-12-20T08:34:51;4.60;;;2.88;;
60867;SDS011;46702;48.370;10.794;2023-12-20T08:37:17;3.05;;;2.75;;
60867;SDS011;46702;48.370;10.794;2023-12-20T08:39:42;2.15;;;2.05;;
60867;SDS011;46702;48.370;10.794;2023-12-20T08:42:09;5.32;;;3.08;;
60867;SDS011;46702;48.370;10.794;2023-12-20T08:44:34;2.70;;;2.42;;
60867;SDS011;46702;48.370;10.794;2023-12-20T08:47:00;3.45;;;2.70;;
60867;SDS011;46702;48.370;10.794;2023-12-20T08:49:25;2.90;;;2.60;;
60867;SDS011;46702;48.370;10.794;2023-12-20T08:51:51;3.88;;;2.67;;
60867;SDS011;46702;48.370;10.794;2023-12-20T08:54:17;5.07;;;3.35;;
60867;SDS011;46702;48.370;10.794;2023-12-20T08:56:44;3.78;;;2.80;;
60867;SDS011;46702;48.370;10.794;2023-12-20T08:59:09;4.43;;;2.53;;
60867;SDS011;46702;48.370;10.794;2023-12-20T09:01:35;2.28;;;2.00;;
60867;SDS011;46702;48.370;10.794;2023-12-20T09:04:01;4.88;;;3.22;;
60867;SDS011;46702;48.370;10.794;2023-12-20T09:06:26;2.17;;;1.98;;
60867;SDS011;46702;48.370;10.794;2023-12-20T09:08:52;4.20;;;2.67;;
60867;SDS011;46702;48.370;10.794;2023-12-20T09:11:17;1.90;;;1.75;;
60867;SDS011;46702;48.370;10.794;2023-12-20T09:13:43;2.85;;;2.58;;
60867;SDS011;46702;48.370;10.794;2023-12-20T09:16:09;2.22;;;2.03;;
60867;SDS011;46702;48.370;10.794;2023-12-20T09:18:35;3.63;;;2.50;;
60867;SDS011;46702;48.370;10.794;2023-12-20T09:21:00;3.13;;;2.63;;
60867;SDS011;46702;48.370;10.794;2023-12-20T09:23:27;2.63;;;2.42;;
60867;SDS011;46702;48.370;10.794;2023-12-20T09:25:52;2.50;;;2.25;;
60867;SDS011;46702;48.370;10.794;2023-12-20T09:28:18;2.83;;;2.50;;
60867;SDS011;46702;48.370;10.794;2023-12-20T09:30:44;3.45;;;2.47;;
60867;SDS011;46702;48.370;10.794;2023-12-20T09:33:11;3.53;;;2.63;;
60867;SDS011;46702;48.370;10.794;2023-12-20T09:35:37;4.93;;;2.97;;
60867;SDS011;46702;48.370;10.794;2023-12-20T09:38:02;2.42;;;2.17;;
60867;SDS011;46702;48.370;10.794;2023-12-20T09:40:28;3.17;;;2.83;;
60867;SDS011;46702;48.370;10.794;2023-12-20T09:42:57;1.88;;;1.67;;
60867;SDS011;46702;48.370;10.794;2023-12-20T09:45:26;2.63;;;2.20;;
60867;SDS011;46702;48.370;10.794;2023-12-20T09:47:53;2.92;;;2.63;;
60867;SDS011;46702;48.370;10.794;2023-12-20T09:50:21;2.75;;;2.20;;
60867;SDS011;46702;48.370;10.794;2023-12-20T09:52:51;1.38;;;1.25;;
60867;SDS011;46702;48.370;10.794;2023-12-20T09:55:18;2.22;;;2.03;;
60867;SDS011;46702;48.370;10.794;2023-12-20T09:57:44;3.00;;;2.30;;
60867;SDS011;46702;48.370;10.794;2023-12-20T10:02:41;2.63;;;2.35;;
60867;SDS011;46702;48.370;10.794;2023-12-20T10:05:15;2.20;;;2.00;;
60867;SDS011;46702;48.370;10.794;2023-12-20T10:07:45;2.17;;;2.05;;
60867;SDS011;46702;48.370;10.794;2023-12-20T10:10:12;5.72;;;1.98;;
60867;SDS011;46702;48.370;10.794;2023-12-20T10:12:38;3.03;;;2.50;;
60867;SDS011;46702;48.370;10.794;2023-12-20T10:15:05;1.45;;;1.38;;
60867;SDS011;46702;48.370;10.794;2023-12-20T10:17:31;6.75;;;1.90;;
60867;SDS011;46702;48.370;10.794;2023-12-20T10:19:57;1.95;;;1.83;;
60867;SDS011;46702;48.370;10.794;2023-12-20T10:22:23;2.10;;;1.75;;
60867;SDS011;46702;48.370;10.794;2023-12-20T10:24:49;3.58;;;3.30;;
60867;SDS011;46702;48.370;10.794;2023-12-20T10:27:14;2.13;;;1.55;;
60867;SDS011;46702;48.370;10.794;2023-12-20T10:29:44;2.20;;;1.75;;
60867;SDS011;46702;48.370;10.794;2023-12-20T10:34:52;1.70;;;1.35;;
60867;SDS011;46702;48.370;10.794;2023-12-20T10:37:18;1.52;;;1.42;;
60867;SDS011;46702;48.370;10.794;2023-12-20T10:39:44;1.20;;;1.08;;
60867;SDS011;46702;48.370;10.794;2023-12-20T10:42:14;0.95;;;0.95;;
60867;SDS011;46702;48.370;10.794;2023-12-20T10:44:41;1.45;;;1.35;;
60867;SDS011;46702;48.370;10.794;2023-12-20T10:47:08;0.95;;;0.95;;
60867;SDS011;46702;48.370;10.794;2023-12-20T10:49:39;1.83;;;1.73;;
60867;SDS011;46702;48.370;10.794;2023-12-20T10:52:06;1.50;;;1.40;;
60867;SDS011;46702;48.370;10.794;2023-12-20T10:54:33;1.88;;;1.55;;
60867;SDS011;46702;48.370;10.794;2023-12-20T10:56:59;1.50;;;1.40;;
60867;SDS011;46702;48.370;10.794;2023-12-20T10:59:26;1.85;;;1.73;;
60867;SDS011;46702;48.370;10.794;2023-12-20T11:01:54;2.78;;;2.25;;
60867;SDS011;46702;48.370;10.794;2023-12-20T11:04:24;1.77;;;1.67;;
60867;SDS011;46702;48.370;10.794;2023-12-20T11:06:57;1.05;;;0.95;;
60867;SDS011;46702;48.370;10.794;2023-12-20T11:09:31;1.10;;;1.10;;
60867;SDS011;46702;48.370;10.794;2023-12-20T11:12:16;1.67;;;1.58;;
60867;SDS011;46702;48.370;10.794;2023-12-20T11:14:52;2.10;;;1.90;;
60867;SDS011;46702;48.370;10.794;2023-12-20T11:17:22;1.80;;;1.70;;
60867;SDS011;46702;48.370;10.794;2023-12-20T11:22:20;1.83;;;1.73;;
60867;SDS011;46702;48.370;10.794;2023-12-20T11:24:46;1.17;;;1.17;;
60867;SDS011;46702;48.370;10.794;2023-12-20T11:27:13;1.25;;;1.25;;
60867;SDS011;46702;48.370;10.794;2023-12-20T11:29:39;2.17;;;1.92;;
60867;SDS011;46702;48.370;10.794;2023-12-20T11:34:56;1.95;;;1.77;;
60867;SDS011;46702;48.370;10.794;2023-12-20T11:37:30;1.77;;;1.67;;
60867;SDS011;46702;48.370;10.794;2023-12-20T11:40:06;2.72;;;1.80;;
60867;SDS011;46702;48.370;10.794;2023-12-20T11:45:09;1.63;;;1.52;;
60867;SDS011;46702;48.370;10.794;2023-12-20T11:47:36;1.60;;;1.50;;
60867;SDS011;46702;48.370;10.794;2023-12-20T11:50:01;1.40;;;1.38;;
60867;SDS011;46702;48.370;10.794;2023-12-20T11:52:29;1.58;;;1.48;;
60867;SDS011;46702;48.370;10.794;2023-12-20T11:54:55;1.75;;;1.65;;
60867;SDS011;46702;48.370;10.794;2023-12-20T11:57:22;0.90;;;0.90;;
60867;SDS011;46702;48.370;10.794;2023-12-20T11:59:47;2.08;;;1.98;;
60867;SDS011;46702;48.370;10.794;2023-12-20T12:02:13;1.38;;;1.30;;
60867;SDS011;46702;48.370;10.794;2023-12-20T12:04:43;0.93;;;0.93;;
60867;SDS011;46702;48.370;10.794;2023-12-20T12:07:08;2.20;;;1.70;;
60867;SDS011;46702;48.370;10.794;2023-12-20T12:09:34;1.60;;;1.50;;
60867;SDS011;46702;48.370;10.794;2023-12-20T12:12:00;1.17;;;0.93;;
60867;SDS011;46702;48.370;10.794;2023-12-20T12:14:26;1.27;;;1.27;;
60867;SDS011;46702;48.370;10.794;2023-12-20T12:16:52;1.55;;;1.40;;
60867;SDS011;46702;48.370;10.794;2023-12-20T12:19:26;1.13;;;1.13;;
60867;SDS011;46702;48.370;10.794;2023-12-20T12:22:08;2.20;;;1.27;;
60867;SDS011;46702;48.370;10.794;2023-12-20T12:24:38;1.27;;;1.27;;
60867;SDS011;46702;48.370;10.794;2023-12-20T12:27:05;2.42;;;1.25;;
60867;SDS011;46702;48.370;10.794;2023-12-20T12:29:32;1.27;;;1.20;;
60867;SDS011;46702;48.370;10.794;2023-12-20T12:31:58;1.20;;;1.17;;
60867;SDS011;46702;48.370;10.794;2023-12-20T12:34:26;1.42;;;1.33;;
60867;SDS011;46702;48.370;10.794;2023-12-20T12:36:53;1.73;;;1.63;;
60867;SDS011;46702;48.370;10.794;2023-12-20T12:39:18;1.58;;;1.48;;
60867;SDS011;46702;48.370;10.794;2023-12-20T12:41:44;1.60;;;1.50;;
60867;SDS011;46702;48.370;10.794;2023-12-20T12:44:10;1.90;;;1.80;;
60867;SDS011;46702;48.370;10.794;2023-12-20T12:46:35;2.75;;;1.52;;
60867;SDS011;46702;48.370;10.794;2023-12-20T12:49:01;1.45;;;1.35;;
60867;SDS011;46702;48.370;10.794;2023-12-20T12:51:27;1.13;;;1.13;;
60867;SDS011;46702;48.370;10.794;2023-12-20T12:53:53;1.65;;;1.55;;
60867;SDS011;46702;48.370;10.794;2023-12-20T12:56:18;1.85;;;0.98;;
60867;SDS011;46702;48.370;10.794;2023-12-20T12:58:44;2.38;;;1.65;;
60867;SDS011;46702;48.370;10.794;2023-12-20T13:01:10;1.27;;;1.20;;
60867;SDS011;46702;48.370;10.794;2023-12-20T13:03:36;1.73;;;1.40;;
60867;SDS011;46702;48.370;10.794;2023-12-20T13:06:01;3.15;;;1.60;;
60867;SDS011;46702;48.370;10.794;2023-12-20T13:08:27;1.30;;;1.20;;
60867;SDS011;46702;48.370;10.794;2023-12-20T13:10:54;1.00;;;1.00;;
60867;SDS011;46702;48.370;10.794;2023-12-20T13:13:20;2.45;;;1.35;;
60867;SDS011;46702;48.370;10.794;2023-12-20T13:15:46;1.60;;;1.50;;
60867;SDS011;46702;48.370;10.794;2023-12-20T13:18:16;1.52;;;1.48;;
60867;SDS011;46702;48.370;10.794;2023-12-20T13:20:43;2.13;;;1.40;;
60867;SDS011;46702;48.370;10.794;2023-12-20T13:23:09;2.17;;;1.55;;
60867;SDS011;46702;48.370;10.794;2023-12-20T13:25:34;0.95;;;0.95;;
60867;SDS011;46702;48.370;10.794;2023-12-20T13:28:00;2.58;;;1.40;;
60867;SDS011;46702;48.370;10.794;2023-12-20T13:30:27;1.15;;;1.10;;
60867;SDS011;46702;48.370;10.794;2023-12-20T13:32:53;1.17;;;1.17;;
60867;SDS011;46702;48.370;10.794;2023-12-20T13:35:18;1.50;;;1.40;;
60867;SDS011;46702;48.370;10.794;2023-12-20T13:37:45;1.20;;;1.10;;
60867;SDS011;46702;48.370;10.794;2023-12-20T13:40:11;1.23;;;1.13;;
60867;SDS011;46702;48.370;10.794;2023-12-20T13:42:37;1.17;;;1.17;;
60867;SDS011;46702;48.370;10.794;2023-12-20T13:45:03;6.20;;;1.52;;
60867;SDS011;46702;48.370;10.794;2023-12-20T13:47:30;1.85;;;1.08;;
60867;SDS011;46702;48.370;10.794;2023-12-20T13:49:56;1.77;;;1.50;;
60867;SDS011;46702;48.370;10.794;2023-12-20T13:52:21;3.88;;;1.10;;
60867;SDS011;46702;48.370;10.794;2023-12-20T13:54:47;1.42;;;1.20;;
60867;SDS011;46702;48.370;10.794;2023-12-20T13:57:12;1.73;;;1.63;;
60867;SDS011;46702;48.370;10.794;2023-12-20T13:59:38;1.38;;;1.27;;
60867;SDS011;46702;48.370;10.794;2023-12-20T14:02:04;0.50;;;0.50;;
60867;SDS011;46702;48.370;10.794;2023-12-20T14:04:30;0.90;;;0.90;;
60867;SDS011;46702;48.370;10.794;2023-12-20T14:06:56;0.80;;;0.80;;
60867;SDS011;46702;48.370;10.794;2023-12-20T14:09:22;1.13;;;1.13;;
60867;SDS011;46702;48.370;10.794;2023-12-20T14:11:48;0.80;;;0.80;;
60867;SDS011;46702;48.370;10.794;2023-12-20T14:14:14;1.00;;;1.00;;
60867;SDS011;46702;48.370;10.794;2023-12-20T14:16:40;0.93;;;0.93;;
60867;SDS011;46702;48.370;10.794;2023-12-20T14:19:06;0.70;;;0.70;;
60867;SDS011;46702;48.370;10.794;2023-12-20T14:21:34;1.00;;;1.00;;
60867;SDS011;46702;48.370;10.794;2023-12-20T14:24:00;0.70;;;0.70;;
60867;SDS011;46702;48.370;10.794;2023-12-20T14:26:25;1.00;;;0.90;;
60867;SDS011;46702;48.370;10.794;2023-12-20T14:28:53;1.95;;;0.93;;
60867;SDS011;46702;48.370;10.794;2023-12-20T14:31:19;0.80;;;0.80;;
60867;SDS011;46702;48.370;10.794;2023-12-20T14:33:44;0.90;;;0.90;;
60867;SDS011;46702;48.370;10.794;2023-12-20T14:36:11;1.42;;;1.20;;
60867;SDS011;46702;48.370;10.794;2023-12-20T14:38:36;0.90;;;0.90;;
60867;SDS011;46702;48.370;10.794;2023-12-20T14:41:02;1.00;;;1.00;;